sensor_id;sensor_type;location;lat;lon;timestamp;temperature;humidity
26623;DHT22;14254;50.968;5.366;2023-07-02T00:01:41;17.80;99.90
26623;DHT22;14254;50.968;5.366;2023-07-02T00:04:06;17.80;99.90
26623;DHT22;14254;50.968;5.366;2023-07-02T00:06:34;17.60;99.90
26623;DHT22;14254;50.968;5.366;2023-07-02T00:09:09;17.60;99.90
26623;DHT22;14254;50.968;5.366;2023-07-02T00:11:39;17.60;99.90
26623;DHT22;14254;50.968;5.366;2023-07-02T00:14:05;17.70;99.90
26623;DHT22;14254;50.968;5.366;2023-07-02T00:16:31;17.60;99.90
26623;DHT22;14254;50.968;5.366;2023-07-02T00:18:57;17.50;99.90
26623;DHT22;14254;50.968;5.366;2023-07-02T00:21:23;17.50;99.90
26623;DHT22;14254;50.968;5.366;2023-07-02T00:23:57;17.60;99.90
26623;DHT22;14254;50.968;5.366;2023-07-02T00:26:27;17.50;99.90
26623;DHT22;14254;50.968;5.366;2023-07-02T00:28:54;17.40;99.90
26623;DHT22;14254;50.968;5.366;2023-07-02T00:31:19;17.40;99.90
26623;DHT22;14254;50.968;5.366;2023-07-02T00:33:45;17.50;99.90
26623;DHT22;14254;50.968;5.366;2023-07-02T00:36:12;17.40;99.90
26623;DHT22;14254;50.968;5.366;2023-07-02T00:38:41;17.40;99.90
26623;DHT22;14254;50.968;5.366;2023-07-02T00:41:08;17.30;99.90
26623;DHT22;14254;50.968;5.366;2023-07-02T00:43:34;17.30;99.90
26623;DHT22;14254;50.968;5.366;2023-07-02T00:46:00;17.30;99.90
26623;DHT22;14254;50.968;5.366;2023-07-02T00:48:25;17.30;99.90
26623;DHT22;14254;50.968;5.366;2023-07-02T00:50:52;17.30;99.90
26623;DHT22;14254;50.968;5.366;2023-07-02T00:53:18;17.30;99.90
26623;DHT22;14254;50.968;5.366;2023-07-02T00:55:43;17.40;99.90
26623;DHT22;14254;50.968;5.366;2023-07-02T00:58:09;17.40;99.90
26623;DHT22;14254;50.968;5.366;2023-07-02T01:00:35;17.50;99.90
26623;DHT22;14254;50.968;5.366;2023-07-02T01:03:01;17.40;99.90
26623;DHT22;14254;50.968;5.366;2023-07-02T01:05:31;17.40;99.90
26623;DHT22;14254;50.968;5.366;2023-07-02T01:08:09;17.40;99.90
26623;DHT22;14254;50.968;5.366;2023-07-02T01:10:37;17.40;99.90
26623;DHT22;14254;50.968;5.366;2023-07-02T01:13:11;17.40;99.90
26623;DHT22;14254;50.968;5.366;2023-07-02T01:15:38;17.40;99.90
26623;DHT22;14254;50.968;5.366;2023-07-02T01:18:05;17.50;99.90
26623;DHT22;14254;50.968;5.366;2023-07-02T01:20:31;17.40;99.90
26623;DHT22;14254;50.968;5.366;2023-07-02T01:22:58;17.50;99.90
26623;DHT22;14254;50.968;5.366;2023-07-02T01:25:28;17.50;99.90
26623;DHT22;14254;50.968;5.366;2023-07-02T01:27:55;17.50;99.90
26623;DHT22;14254;50.968;5.366;2023-07-02T01:30:22;17.40;99.90
26623;DHT22;14254;50.968;5.366;2023-07-02T01:32:47;17.30;99.90
26623;DHT22;14254;50.968;5.366;2023-07-02T01:35:13;17.40;99.90
26623;DHT22;14254;50.968;5.366;2023-07-02T01:37:39;17.30;99.90
26623;DHT22;14254;50.968;5.366;2023-07-02T01:40:05;17.40;99.90
26623;DHT22;14254;50.968;5.366;2023-07-02T01:42:34;17.30;99.90
26623;DHT22;14254;50.968;5.366;2023-07-02T01:45:00;17.30;99.90
26623;DHT22;14254;50.968;5.366;2023-07-02T01:47:25;17.20;99.90
26623;DHT22;14254;50.968;5.366;2023-07-02T01:49:51;17.30;99.90
26623;DHT22;14254;50.968;5.366;2023-07-02T01:52:17;17.30;99.90
26623;DHT22;14254;50.968;5.366;2023-07-02T01:54:43;17.30;99.90
26623;DHT22;14254;50.968;5.366;2023-07-02T01:57:09;17.30;99.90
26623;DHT22;14254;50.968;5.366;2023-07-02T01:59:35;17.20;99.90
26623;DHT22;14254;50.968;5.366;2023-07-02T02:02:01;17.30;99.90
26623;DHT22;14254;50.968;5.366;2023-07-02T02:04:27;17.20;99.90
26623;DHT22;14254;50.968;5.366;2023-07-02T02:06:53;17.20;99.90
26623;DHT22;14254;50.968;5.366;2023-07-02T02:09:18;17.20;99.90
26623;DHT22;14254;50.968;5.366;2023-07-02T02:11:47;17.10;99.90
26623;DHT22;14254;50.968;5.366;2023-07-02T02:14:13;17.20;99.90
26623;DHT22;14254;50.968;5.366;2023-07-02T02:16:39;17.20;99.90
26623;DHT22;14254;50.968;5.366;2023-07-02T02:19:05;17.30;99.90
26623;DHT22;14254;50.968;5.366;2023-07-02T02:21:31;17.20;99.90
26623;DHT22;14254;50.968;5.366;2023-07-02T02:23:57;17.20;99.90
26623;DHT22;14254;50.968;5.366;2023-07-02T02:26:23;17.30;99.90
26623;DHT22;14254;50.968;5.366;2023-07-02T02:28:51;17.30;99.90
26623;DHT22;14254;50.968;5.366;2023-07-02T02:31:16;17.30;99.90
26623;DHT22;14254;50.968;5.366;2023-07-02T02:33:43;17.30;99.90
26623;DHT22;14254;50.968;5.366;2023-07-02T02:36:08;17.30;99.90
26623;DHT22;14254;50.968;5.366;2023-07-02T02:38:34;17.30;99.90
26623;DHT22;14254;50.968;5.366;2023-07-02T02:41:00;17.30;99.90
26623;DHT22;14254;50.968;5.366;2023-07-02T02:43:27;17.30;99.90
26623;DHT22;14254;50.968;5.366;2023-07-02T02:45:52;17.30;99.90
26623;DHT22;14254;50.968;5.366;2023-07-02T02:48:18;17.20;99.90
26623;DHT22;14254;50.968;5.366;2023-07-02T02:50:44;17.20;99.90
26623;DHT22;14254;50.968;5.366;2023-07-02T02:53:10;17.30;99.90
26623;DHT22;14254;50.968;5.366;2023-07-02T02:55:36;17.20;99.90
26623;DHT22;14254;50.968;5.366;2023-07-02T02:58:03;17.20;99.90
26623;DHT22;14254;50.968;5.366;2023-07-02T03:00:29;17.00;99.90
26623;DHT22;14254;50.968;5.366;2023-07-02T03:02:55;17.10;99.90
26623;DHT22;14254;50.968;5.366;2023-07-02T03:05:21;17.00;99.90
26623;DHT22;14254;50.968;5.366;2023-07-02T03:07:47;17.00;99.90
26623;DHT22;14254;50.968;5.366;2023-07-02T03:10:13;16.90;99.90
26623;DHT22;14254;50.968;5.366;2023-07-02T03:12:38;16.90;99.90
26623;DHT22;14254;50.968;5.366;2023-07-02T03:15:04;16.90;99.90
26623;DHT22;14254;50.968;5.366;2023-07-02T03:17:30;16.90;99.90
26623;DHT22;14254;50.968;5.366;2023-07-02T03:19:56;16.80;99.90
26623;DHT22;14254;50.968;5.366;2023-07-02T03:22:22;16.90;99.90
26623;DHT22;14254;50.968;5.366;2023-07-02T03:24:48;16.80;99.90
26623;DHT22;14254;50.968;5.366;2023-07-02T03:27:13;16.80;99.90
26623;DHT22;14254;50.968;5.366;2023-07-02T03:29:39;16.70;99.90
26623;DHT22;14254;50.968;5.366;2023-07-02T03:32:05;16.80;99.90
26623;DHT22;14254;50.968;5.366;2023-07-02T03:34:31;16.70;99.90
26623;DHT22;14254;50.968;5.366;2023-07-02T03:36:59;16.70;99.90
26623;DHT22;14254;50.968;5.366;2023-07-02T03:39:25;16.60;99.90
26623;DHT22;14254;50.968;5.366;2023-07-02T03:41:50;16.60;99.90
26623;DHT22;14254;50.968;5.366;2023-07-02T03:44:16;16.60;99.90
26623;DHT22;14254;50.968;5.366;2023-07-02T03:46:43;16.70;99.90
26623;DHT22;14254;50.968;5.366;2023-07-02T03:49:09;16.70;99.90
26623;DHT22;14254;50.968;5.366;2023-07-02T03:51:34;16.80;99.90
26623;DHT22;14254;50.968;5.366;2023-07-02T03:54:00;16.80;99.90
26623;DHT22;14254;50.968;5.366;2023-07-02T03:56:26;16.80;99.90
26623;DHT22;14254;50.968;5.366;2023-07-02T03:58:52;16.70;99.90
26623;DHT22;14254;50.968;5.366;2023-07-02T04:01:18;16.80;99.90
26623;DHT22;14254;50.968;5.366;2023-07-02T04:03:51;16.80;99.90
26623;DHT22;14254;50.968;5.366;2023-07-02T04:06:17;16.80;99.90
26623;DHT22;14254;50.968;5.366;2023-07-02T04:08:44;16.80;99.90
26623;DHT22;14254;50.968;5.366;2023-07-02T04:11:10;16.90;99.90
26623;DHT22;14254;50.968;5.366;2023-07-02T04:13:36;16.90;99.90
26623;DHT22;14254;50.968;5.366;2023-07-02T04:16:02;17.00;99.90
26623;DHT22;14254;50.968;5.366;2023-07-02T04:18:28;16.90;99.90
26623;DHT22;14254;50.968;5.366;2023-07-02T04:20:57;16.90;99.90
26623;DHT22;14254;50.968;5.366;2023-07-02T04:23:24;16.90;99.90
26623;DHT22;14254;50.968;5.366;2023-07-02T04:25:49;16.90;99.90
26623;DHT22;14254;50.968;5.366;2023-07-02T04:28:15;16.90;99.90
26623;DHT22;14254;50.968;5.366;2023-07-02T04:30:41;16.80;99.90
26623;DHT22;14254;50.968;5.366;2023-07-02T04:33:07;16.80;99.90
26623;DHT22;14254;50.968;5.366;2023-07-02T04:35:33;16.80;99.90
26623;DHT22;14254;50.968;5.366;2023-07-02T04:38:00;16.80;99.90
26623;DHT22;14254;50.968;5.366;2023-07-02T04:40:26;16.70;99.90
26623;DHT22;14254;50.968;5.366;2023-07-02T04:42:51;16.70;99.90
26623;DHT22;14254;50.968;5.366;2023-07-02T04:45:24;16.70;99.90
26623;DHT22;14254;50.968;5.366;2023-07-02T04:47:50;16.80;99.90
26623;DHT22;14254;50.968;5.366;2023-07-02T04:50:17;16.80;99.90
26623;DHT22;14254;50.968;5.366;2023-07-02T04:52:43;16.80;99.90
26623;DHT22;14254;50.968;5.366;2023-07-02T04:55:09;16.90;99.90
26623;DHT22;14254;50.968;5.366;2023-07-02T04:57:35;16.90;99.90
26623;DHT22;14254;50.968;5.366;2023-07-02T05:00:01;16.90;99.90
26623;DHT22;14254;50.968;5.366;2023-07-02T05:02:29;16.90;99.90
26623;DHT22;14254;50.968;5.366;2023-07-02T05:04:54;17.00;99.90
26623;DHT22;14254;50.968;5.366;2023-07-02T05:07:20;17.10;99.90
26623;DHT22;14254;50.968;5.366;2023-07-02T05:09:46;17.10;99.90
26623;DHT22;14254;50.968;5.366;2023-07-02T05:12:14;17.10;99.90
26623;DHT22;14254;50.968;5.366;2023-07-02T05:14:39;17.10;99.90
26623;DHT22;14254;50.968;5.366;2023-07-02T05:17:05;17.10;99.90
26623;DHT22;14254;50.968;5.366;2023-07-02T05:19:31;17.20;99.90
26623;DHT22;14254;50.968;5.366;2023-07-02T05:21:56;17.30;99.90
26623;DHT22;14254;50.968;5.366;2023-07-02T05:24:22;17.40;99.90
26623;DHT22;14254;50.968;5.366;2023-07-02T05:26:48;17.40;99.90
26623;DHT22;14254;50.968;5.366;2023-07-02T05:29:13;17.50;99.90
26623;DHT22;14254;50.968;5.366;2023-07-02T05:31:39;17.60;99.90
26623;DHT22;14254;50.968;5.366;2023-07-02T05:34:05;17.50;99.90
26623;DHT22;14254;50.968;5.366;2023-07-02T05:36:31;17.50;99.90
26623;DHT22;14254;50.968;5.366;2023-07-02T05:38:56;17.50;99.90
26623;DHT22;14254;50.968;5.366;2023-07-02T05:41:22;17.50;99.90
26623;DHT22;14254;50.968;5.366;2023-07-02T05:43:48;17.50;99.90
26623;DHT22;14254;50.968;5.366;2023-07-02T05:46:14;17.50;99.90
26623;DHT22;14254;50.968;5.366;2023-07-02T05:48:41;17.50;99.90
26623;DHT22;14254;50.968;5.366;2023-07-02T05:51:08;17.50;99.90
26623;DHT22;14254;50.968;5.366;2023-07-02T05:53:34;17.40;99.90
26623;DHT22;14254;50.968;5.366;2023-07-02T05:55:59;17.40;99.90
26623;DHT22;14254;50.968;5.366;2023-07-02T05:58:25;17.40;99.90
26623;DHT22;14254;50.968;5.366;2023-07-02T06:00:51;17.50;99.90
26623;DHT22;14254;50.968;5.366;2023-07-02T06:03:18;17.60;99.90
26623;DHT22;14254;50.968;5.366;2023-07-02T06:05:50;17.70;99.90
26623;DHT22;14254;50.968;5.366;2023-07-02T06:08:16;17.90;99.90
26623;DHT22;14254;50.968;5.366;2023-07-02T06:10:43;17.90;99.90
26623;DHT22;14254;50.968;5.366;2023-07-02T06:13:09;17.80;99.90
26623;DHT22;14254;50.968;5.366;2023-07-02T06:15:35;17.80;99.90
26623;DHT22;14254;50.968;5.366;2023-07-02T06:18:00;17.90;99.90
26623;DHT22;14254;50.968;5.366;2023-07-02T06:20:26;18.10;99.90
26623;DHT22;14254;50.968;5.366;2023-07-02T06:22:52;18.20;99.90
26623;DHT22;14254;50.968;5.366;2023-07-02T06:25:17;18.20;99.90
26623;DHT22;14254;50.968;5.366;2023-07-02T06:27:43;18.10;99.90
26623;DHT22;14254;50.968;5.366;2023-07-02T06:30:09;18.10;99.90
26623;DHT22;14254;50.968;5.366;2023-07-02T06:32:35;18.20;99.90
26623;DHT22;14254;50.968;5.366;2023-07-02T06:35:00;18.30;99.90
26623;DHT22;14254;50.968;5.366;2023-07-02T06:37:26;18.40;99.90
26623;DHT22;14254;50.968;5.366;2023-07-02T06:39:52;18.70;99.90
26623;DHT22;14254;50.968;5.366;2023-07-02T06:42:18;19.00;99.90
26623;DHT22;14254;50.968;5.366;2023-07-02T06:44:43;19.00;99.90
26623;DHT22;14254;50.968;5.366;2023-07-02T06:47:09;18.90;99.90
26623;DHT22;14254;50.968;5.366;2023-07-02T06:49:35;18.80;99.90
26623;DHT22;14254;50.968;5.366;2023-07-02T06:52:01;18.70;99.90
26623;DHT22;14254;50.968;5.366;2023-07-02T06:54:27;18.90;99.90
26623;DHT22;14254;50.968;5.366;2023-07-02T06:56:53;19.00;99.90
26623;DHT22;14254;50.968;5.366;2023-07-02T06:59:22;19.40;99.90
26623;DHT22;14254;50.968;5.366;2023-07-02T07:01:51;19.70;99.90
26623;DHT22;14254;50.968;5.366;2023-07-02T07:04:17;19.90;99.90
26623;DHT22;14254;50.968;5.366;2023-07-02T07:06:43;20.00;99.90
26623;DHT22;14254;50.968;5.366;2023-07-02T07:09:08;19.80;99.90
26623;DHT22;14254;50.968;5.366;2023-07-02T07:11:35;19.80;99.90
26623;DHT22;14254;50.968;5.366;2023-07-02T07:14:00;19.80;99.90
26623;DHT22;14254;50.968;5.366;2023-07-02T07:16:26;19.90;99.90
26623;DHT22;14254;50.968;5.366;2023-07-02T07:18:52;19.80;99.90
26623;DHT22;14254;50.968;5.366;2023-07-02T07:21:17;19.60;99.90
26623;DHT22;14254;50.968;5.366;2023-07-02T07:23:43;19.80;99.90
26623;DHT22;14254;50.968;5.366;2023-07-02T07:26:09;19.80;99.90
26623;DHT22;14254;50.968;5.366;2023-07-02T07:28:35;20.00;99.90
26623;DHT22;14254;50.968;5.366;2023-07-02T07:31:01;20.00;99.90
26623;DHT22;14254;50.968;5.366;2023-07-02T07:33:27;20.00;99.90
26623;DHT22;14254;50.968;5.366;2023-07-02T07:35:53;20.00;99.90
26623;DHT22;14254;50.968;5.366;2023-07-02T07:38:18;19.90;99.90
26623;DHT22;14254;50.968;5.366;2023-07-02T07:40:44;19.80;99.90
26623;DHT22;14254;50.968;5.366;2023-07-02T07:43:10;19.80;99.90
26623;DHT22;14254;50.968;5.366;2023-07-02T07:45:36;19.70;99.90
26623;DHT22;14254;50.968;5.366;2023-07-02T07:48:04;19.70;99.90
26623;DHT22;14254;50.968;5.366;2023-07-02T07:50:29;19.90;99.90
26623;DHT22;14254;50.968;5.366;2023-07-02T07:52:55;20.00;99.90
26623;DHT22;14254;50.968;5.366;2023-07-02T07:55:21;20.30;99.90
26623;DHT22;14254;50.968;5.366;2023-07-02T07:57:46;20.20;99.90
26623;DHT22;14254;50.968;5.366;2023-07-02T08:00:13;20.10;99.90
26623;DHT22;14254;50.968;5.366;2023-07-02T08:02:39;20.00;99.90
26623;DHT22;14254;50.968;5.366;2023-07-02T08:05:05;19.90;99.90
26623;DHT22;14254;50.968;5.366;2023-07-02T08:07:31;19.90;99.90
26623;DHT22;14254;50.968;5.366;2023-07-02T08:09:58;20.00;99.90
26623;DHT22;14254;50.968;5.366;2023-07-02T08:12:24;19.90;99.90
26623;DHT22;14254;50.968;5.366;2023-07-02T08:14:52;20.10;99.90
26623;DHT22;14254;50.968;5.366;2023-07-02T08:17:17;20.20;99.90
26623;DHT22;14254;50.968;5.366;2023-07-02T08:19:43;20.30;99.90
26623;DHT22;14254;50.968;5.366;2023-07-02T08:22:09;20.40;99.90
26623;DHT22;14254;50.968;5.366;2023-07-02T08:24:38;20.40;99.90
26623;DHT22;14254;50.968;5.366;2023-07-02T08:27:04;20.50;99.90
26623;DHT22;14254;50.968;5.366;2023-07-02T08:29:30;20.50;99.90
26623;DHT22;14254;50.968;5.366;2023-07-02T08:31:56;20.30;99.90
26623;DHT22;14254;50.968;5.366;2023-07-02T08:34:22;20.40;99.90
26623;DHT22;14254;50.968;5.366;2023-07-02T08:36:48;20.80;99.90
26623;DHT22;14254;50.968;5.366;2023-07-02T08:39:14;21.10;99.90
26623;DHT22;14254;50.968;5.366;2023-07-02T08:41:47;21.20;99.90
26623;DHT22;14254;50.968;5.366;2023-07-02T08:44:14;21.10;99.90
26623;DHT22;14254;50.968;5.366;2023-07-02T08:46:40;21.10;99.90
26623;DHT22;14254;50.968;5.366;2023-07-02T08:49:07;21.30;99.90
26623;DHT22;14254;50.968;5.366;2023-07-02T08:51:33;21.50;99.90
26623;DHT22;14254;50.968;5.366;2023-07-02T08:53:58;21.80;99.90
26623;DHT22;14254;50.968;5.366;2023-07-02T08:56:24;21.90;99.90
26623;DHT22;14254;50.968;5.366;2023-07-02T08:58:52;21.90;99.90
26623;DHT22;14254;50.968;5.366;2023-07-02T09:01:17;21.70;99.90
26623;DHT22;14254;50.968;5.366;2023-07-02T09:03:43;21.30;99.90
26623;DHT22;14254;50.968;5.366;2023-07-02T09:06:10;21.30;99.90
26623;DHT22;14254;50.968;5.366;2023-07-02T09:08:36;21.20;99.90
26623;DHT22;14254;50.968;5.366;2023-07-02T09:13:48;21.30;99.90
26623;DHT22;14254;50.968;5.366;2023-07-02T09:16:24;21.00;99.90
26623;DHT22;14254;50.968;5.366;2023-07-02T09:19:01;20.80;99.90
26623;DHT22;14254;50.968;5.366;2023-07-02T09:21:37;21.00;99.90
26623;DHT22;14254;50.968;5.366;2023-07-02T09:24:18;21.00;99.90
26623;DHT22;14254;50.968;5.366;2023-07-02T09:26:48;21.30;99.90
26623;DHT22;14254;50.968;5.366;2023-07-02T09:29:22;21.70;99.90
26623;DHT22;14254;50.968;5.366;2023-07-02T09:31:52;22.00;99.90
26623;DHT22;14254;50.968;5.366;2023-07-02T09:34:17;22.30;99.90
26623;DHT22;14254;50.968;5.366;2023-07-02T09:36:43;22.60;99.90
26623;DHT22;14254;50.968;5.366;2023-07-02T09:39:20;22.70;99.90
26623;DHT22;14254;50.968;5.366;2023-07-02T09:41:50;22.50;99.90
26623;DHT22;14254;50.968;5.366;2023-07-02T09:44:17;22.30;99.90
26623;DHT22;14254;50.968;5.366;2023-07-02T09:46:52;22.50;99.90
26623;DHT22;14254;50.968;5.366;2023-07-02T09:49:20;22.80;99.90
26623;DHT22;14254;50.968;5.366;2023-07-02T09:51:47;23.00;99.90
26623;DHT22;14254;50.968;5.366;2023-07-02T09:54:13;23.10;98.00
26623;DHT22;14254;50.968;5.366;2023-07-02T09:56:39;23.30;97.90
26623;DHT22;14254;50.968;5.366;2023-07-02T09:59:05;23.40;97.40
26623;DHT22;14254;50.968;5.366;2023-07-02T10:01:31;23.30;98.20
26623;DHT22;14254;50.968;5.366;2023-07-02T10:03:57;23.50;97.60
26623;DHT22;14254;50.968;5.366;2023-07-02T10:06:22;23.70;97.50
26623;DHT22;14254;50.968;5.366;2023-07-02T10:08:55;23.90;95.60
26623;DHT22;14254;50.968;5.366;2023-07-02T10:11:21;23.90;96.60
26623;DHT22;14254;50.968;5.366;2023-07-02T10:13:58;24.10;96.40
26623;DHT22;14254;50.968;5.366;2023-07-02T10:16:25;23.70;96.50
26623;DHT22;14254;50.968;5.366;2023-07-02T10:18:53;24.00;97.30
26623;DHT22;14254;50.968;5.366;2023-07-02T10:21:19;24.00;96.50
26623;DHT22;14254;50.968;5.366;2023-07-02T10:23:45;23.70;96.80
26623;DHT22;14254;50.968;5.366;2023-07-02T10:26:15;23.60;97.40
26623;DHT22;14254;50.968;5.366;2023-07-02T10:28:41;23.40;97.80
26623;DHT22;14254;50.968;5.366;2023-07-02T10:31:20;23.40;97.50
26623;DHT22;14254;50.968;5.366;2023-07-02T10:33:47;23.50;97.20
26623;DHT22;14254;50.968;5.366;2023-07-02T10:36:20;23.40;97.40
26623;DHT22;14254;50.968;5.366;2023-07-02T10:38:46;23.10;98.50
26623;DHT22;14254;50.968;5.366;2023-07-02T10:41:22;23.10;98.60
26623;DHT22;14254;50.968;5.366;2023-07-02T10:43:48;23.20;99.70
26623;DHT22;14254;50.968;5.366;2023-07-02T10:46:21;23.30;99.20
26623;DHT22;14254;50.968;5.366;2023-07-02T10:48:56;23.40;99.20
26623;DHT22;14254;50.968;5.366;2023-07-02T10:51:23;23.60;99.10
26623;DHT22;14254;50.968;5.366;2023-07-02T10:54:00;23.60;98.90
26623;DHT22;14254;50.968;5.366;2023-07-02T10:56:27;23.40;99.20
26623;DHT22;14254;50.968;5.366;2023-07-02T10:58:55;23.30;99.30
26623;DHT22;14254;50.968;5.366;2023-07-02T11:01:28;22.90;99.90
26623;DHT22;14254;50.968;5.366;2023-07-02T11:04:01;22.80;99.90
26623;DHT22;14254;50.968;5.366;2023-07-02T11:06:30;22.90;99.90
26623;DHT22;14254;50.968;5.366;2023-07-02T11:08:57;23.50;99.90
26623;DHT22;14254;50.968;5.366;2023-07-02T11:11:24;23.80;99.50
26623;DHT22;14254;50.968;5.366;2023-07-02T11:13:51;23.90;99.90
26623;DHT22;14254;50.968;5.366;2023-07-02T11:16:27;24.10;98.20
26623;DHT22;14254;50.968;5.366;2023-07-02T11:18:54;24.30;98.80
26623;DHT22;14254;50.968;5.366;2023-07-02T11:21:31;24.40;98.40
26623;DHT22;14254;50.968;5.366;2023-07-02T11:24:06;24.60;97.80
26623;DHT22;14254;50.968;5.366;2023-07-02T11:26:37;24.60;98.50
26623;DHT22;14254;50.968;5.366;2023-07-02T11:29:03;24.40;97.90
26623;DHT22;14254;50.968;5.366;2023-07-02T11:31:28;24.20;98.70
26623;DHT22;14254;50.968;5.366;2023-07-02T11:33:54;24.20;99.50
26623;DHT22;14254;50.968;5.366;2023-07-02T11:36:24;23.90;99.30
26623;DHT22;14254;50.968;5.366;2023-07-02T11:38:50;23.60;99.50
26623;DHT22;14254;50.968;5.366;2023-07-02T11:41:17;23.60;99.80
26623;DHT22;14254;50.968;5.366;2023-07-02T11:43:43;24.00;99.90
26623;DHT22;14254;50.968;5.366;2023-07-02T11:46:08;24.20;97.80
26623;DHT22;14254;50.968;5.366;2023-07-02T11:48:34;24.10;98.90
26623;DHT22;14254;50.968;5.366;2023-07-02T11:51:00;24.30;98.90
26623;DHT22;14254;50.968;5.366;2023-07-02T11:53:25;24.60;97.90
26623;DHT22;14254;50.968;5.366;2023-07-02T11:55:51;24.80;96.90
26623;DHT22;14254;50.968;5.366;2023-07-02T11:58:17;25.20;96.90
26623;DHT22;14254;50.968;5.366;2023-07-02T12:00:42;26.60;95.60
26623;DHT22;14254;50.968;5.366;2023-07-02T12:03:08;26.80;95.20
26623;DHT22;14254;50.968;5.366;2023-07-02T12:05:35;27.00;95.00
26623;DHT22;14254;50.968;5.366;2023-07-02T12:08:02;27.20;94.40
26623;DHT22;14254;50.968;5.366;2023-07-02T12:10:28;26.50;94.90
26623;DHT22;14254;50.968;5.366;2023-07-02T12:12:53;26.10;95.20
26623;DHT22;14254;50.968;5.366;2023-07-02T12:15:19;25.40;95.30
26623;DHT22;14254;50.968;5.366;2023-07-02T12:17:45;24.50;97.10
26623;DHT22;14254;50.968;5.366;2023-07-02T12:20:11;24.20;98.20
26623;DHT22;14254;50.968;5.366;2023-07-02T12:22:36;24.00;98.50
26623;DHT22;14254;50.968;5.366;2023-07-02T12:25:02;23.90;98.50
26623;DHT22;14254;50.968;5.366;2023-07-02T12:27:28;23.80;98.70
26623;DHT22;14254;50.968;5.366;2023-07-02T12:29:55;23.80;98.20
26623;DHT22;14254;50.968;5.366;2023-07-02T12:32:21;23.80;98.60
26623;DHT22;14254;50.968;5.366;2023-07-02T12:34:46;24.00;98.20
26623;DHT22;14254;50.968;5.366;2023-07-02T12:37:12;24.60;97.30
26623;DHT22;14254;50.968;5.366;2023-07-02T12:39:42;25.20;96.50
26623;DHT22;14254;50.968;5.366;2023-07-02T12:42:08;26.60;94.20
26623;DHT22;14254;50.968;5.366;2023-07-02T12:44:33;27.00;93.30
26623;DHT22;14254;50.968;5.366;2023-07-02T12:46:59;27.20;93.60
26623;DHT22;14254;50.968;5.366;2023-07-02T12:49:25;28.00;91.30
26623;DHT22;14254;50.968;5.366;2023-07-02T12:51:50;27.50;91.00
26623;DHT22;14254;50.968;5.366;2023-07-02T12:54:16;27.10;92.10
26623;DHT22;14254;50.968;5.366;2023-07-02T12:56:42;28.20;91.00
26623;DHT22;14254;50.968;5.366;2023-07-02T12:59:07;29.30;89.20
26623;DHT22;14254;50.968;5.366;2023-07-02T13:01:33;29.70;87.70
26623;DHT22;14254;50.968;5.366;2023-07-02T13:03:58;30.20;87.10
26623;DHT22;14254;50.968;5.366;2023-07-02T13:06:25;29.30;84.60
26623;DHT22;14254;50.968;5.366;2023-07-02T13:08:50;26.90;88.30
26623;DHT22;14254;50.968;5.366;2023-07-02T13:11:16;26.10;91.50
26623;DHT22;14254;50.968;5.366;2023-07-02T13:13:42;25.50;91.70
26623;DHT22;14254;50.968;5.366;2023-07-02T13:16:07;25.70;92.20
26623;DHT22;14254;50.968;5.366;2023-07-02T13:18:33;27.60;91.00
26623;DHT22;14254;50.968;5.366;2023-07-02T13:20:59;30.10;86.30
26623;DHT22;14254;50.968;5.366;2023-07-02T13:23:24;32.50;80.30
26623;DHT22;14254;50.968;5.366;2023-07-02T13:25:50;32.10;76.50
26623;DHT22;14254;50.968;5.366;2023-07-02T13:28:16;32.90;75.40
26623;DHT22;14254;50.968;5.366;2023-07-02T13:30:42;35.00;73.70
26623;DHT22;14254;50.968;5.366;2023-07-02T13:33:07;36.40;63.40
26623;DHT22;14254;50.968;5.366;2023-07-02T13:35:33;35.70;61.50
26623;DHT22;14254;50.968;5.366;2023-07-02T13:37:59;35.60;63.20
26623;DHT22;14254;50.968;5.366;2023-07-02T13:40:25;35.90;59.70
26623;DHT22;14254;50.968;5.366;2023-07-02T13:42:51;34.30;62.60
26623;DHT22;14254;50.968;5.366;2023-07-02T13:45:16;34.80;63.80
26623;DHT22;14254;50.968;5.366;2023-07-02T13:47:42;37.00;59.90
26623;DHT22;14254;50.968;5.366;2023-07-02T13:50:08;36.50;57.40
26623;DHT22;14254;50.968;5.366;2023-07-02T13:52:34;35.30;57.40
26623;DHT22;14254;50.968;5.366;2023-07-02T13:54:59;32.90;61.00
26623;DHT22;14254;50.968;5.366;2023-07-02T13:57:25;31.20;63.00
26623;DHT22;14254;50.968;5.366;2023-07-02T13:59:51;30.40;67.10
26623;DHT22;14254;50.968;5.366;2023-07-02T14:02:17;30.00;67.40
26623;DHT22;14254;50.968;5.366;2023-07-02T14:04:43;30.70;66.90
26623;DHT22;14254;50.968;5.366;2023-07-02T14:07:09;32.70;66.10
26623;DHT22;14254;50.968;5.366;2023-07-02T14:09:35;34.50;59.90
26623;DHT22;14254;50.968;5.366;2023-07-02T14:12:02;33.90;60.00
26623;DHT22;14254;50.968;5.366;2023-07-02T14:14:28;33.00;61.90
26623;DHT22;14254;50.968;5.366;2023-07-02T14:16:54;33.20;61.50
26623;DHT22;14254;50.968;5.366;2023-07-02T14:19:19;34.70;60.70
26623;DHT22;14254;50.968;5.366;2023-07-02T14:21:45;35.50;60.20
26623;DHT22;14254;50.968;5.366;2023-07-02T14:24:12;33.80;59.70
26623;DHT22;14254;50.968;5.366;2023-07-02T14:26:38;32.30;61.60
26623;DHT22;14254;50.968;5.366;2023-07-02T14:29:04;31.70;62.20
26623;DHT22;14254;50.968;5.366;2023-07-02T14:31:29;31.90;63.60
26623;DHT22;14254;50.968;5.366;2023-07-02T14:33:55;31.00;62.80
26623;DHT22;14254;50.968;5.366;2023-07-02T14:36:21;30.00;66.60
26623;DHT22;14254;50.968;5.366;2023-07-02T14:38:46;29.60;67.60
26623;DHT22;14254;50.968;5.366;2023-07-02T14:41:12;30.60;66.50
26623;DHT22;14254;50.968;5.366;2023-07-02T14:43:38;32.90;62.90
26623;DHT22;14254;50.968;5.366;2023-07-02T14:46:04;33.20;61.80
26623;DHT22;14254;50.968;5.366;2023-07-02T14:48:30;32.90;62.80
26623;DHT22;14254;50.968;5.366;2023-07-02T14:50:57;32.00;63.00
26623;DHT22;14254;50.968;5.366;2023-07-02T14:53:25;31.70;63.00
26623;DHT22;14254;50.968;5.366;2023-07-02T14:55:54;31.80;63.90
26623;DHT22;14254;50.968;5.366;2023-07-02T14:58:20;34.30;62.00
26623;DHT22;14254;50.968;5.366;2023-07-02T15:00:47;36.10;58.40
26623;DHT22;14254;50.968;5.366;2023-07-02T15:03:13;37.20;55.90
26623;DHT22;14254;50.968;5.366;2023-07-02T15:05:40;35.40;56.00
26623;DHT22;14254;50.968;5.366;2023-07-02T15:08:09;34.50;57.30
26623;DHT22;14254;50.968;5.366;2023-07-02T15:10:39;32.00;60.30
26623;DHT22;14254;50.968;5.366;2023-07-02T15:13:06;30.40;63.30
26623;DHT22;14254;50.968;5.366;2023-07-02T15:15:32;29.60;65.00
26623;DHT22;14254;50.968;5.366;2023-07-02T15:17:58;29.10;67.00
26623;DHT22;14254;50.968;5.366;2023-07-02T15:20:24;29.00;68.30
26623;DHT22;14254;50.968;5.366;2023-07-02T15:22:50;30.70;66.00
26623;DHT22;14254;50.968;5.366;2023-07-02T15:25:16;31.40;63.20
26623;DHT22;14254;50.968;5.366;2023-07-02T15:27:42;30.30;66.10
26623;DHT22;14254;50.968;5.366;2023-07-02T15:30:07;29.70;67.50